createdAt,value
2018-12-25T00:00:17.743Z,33.70
2018-12-25T00:02:45.415Z,33.80
2018-12-25T00:05:13.079Z,33.70
2018-12-25T00:07:40.749Z,33.70
2018-12-25T00:10:08.336Z,33.70
2018-12-25T00:12:35.996Z,33.80
2018-12-25T00:15:03.872Z,33.80
2018-12-25T00:17:31.640Z,33.70
2018-12-25T00:19:59.224Z,33.70
2018-12-25T00:22:26.883Z,33.70
2018-12-25T00:24:54.519Z,33.70
2018-12-25T00:27:22.157Z,33.70
2018-12-25T00:29:49.827Z,33.70
2018-12-25T00:32:17.598Z,33.70
2018-12-25T00:34:45.235Z,33.60
2018-12-25T00:37:12.870Z,33.60
2018-12-25T00:39:40.604Z,33.60
2018-12-25T00:42:08.202Z,33.60
2018-12-25T00:44:35.791Z,33.60
2018-12-25T00:47:03.464Z,33.60
2018-12-25T00:49:31.075Z,33.60
2018-12-25T00:51:58.729Z,33.60
2018-12-25T00:54:26.381Z,33.60
2018-12-25T00:56:54.002Z,33.60
2018-12-25T00:59:21.685Z,33.60
2018-12-25T01:01:49.352Z,33.60
2018-12-25T01:04:17.068Z,33.60
2018-12-25T01:06:44.681Z,33.60
2018-12-25T01:09:12.365Z,33.60
2018-12-25T01:11:40.074Z,33.60
2018-12-25T01:14:07.684Z,33.60
2018-12-25T01:16:35.262Z,33.60
2018-12-25T01:19:02.946Z,33.60
2018-12-25T01:21:30.595Z,33.60
2018-12-25T01:23:58.197Z,33.60
2018-12-25T01:26:25.859Z,33.60
2018-12-25T01:28:53.517Z,33.60
2018-12-25T01:31:21.123Z,33.60
2018-12-25T01:33:48.806Z,33.60
2018-12-25T01:36:16.400Z,33.60
2018-12-25T01:38:44.395Z,33.50
2018-12-25T01:41:16.820Z,33.50
2018-12-25T01:43:44.822Z,33.50
2018-12-25T01:46:12.732Z,33.50
2018-12-25T01:48:40.716Z,33.60
2018-12-25T01:51:08.403Z,33.50
2018-12-25T01:53:36.063Z,33.50
2018-12-25T01:56:03.737Z,33.60
2018-12-25T01:58:31.359Z,33.40
2018-12-25T02:00:59.088Z,33.60
2018-12-25T02:03:26.751Z,33.50
2018-12-25T02:05:54.430Z,33.50
2018-12-25T02:08:22.177Z,33.40
2018-12-25T02:10:49.843Z,33.50
2018-12-25T02:13:17.487Z,33.50
2018-12-25T02:15:45.105Z,33.50
2018-12-25T02:18:12.739Z,33.40
2018-12-25T02:20:40.399Z,33.50
2018-12-25T02:23:08.026Z,33.50
2018-12-25T02:25:35.624Z,33.50
2018-12-25T02:28:03.283Z,33.40
2018-12-25T02:30:30.877Z,33.50
2018-12-25T02:32:58.482Z,33.40
2018-12-25T02:35:26.114Z,33.50
2018-12-25T02:37:53.724Z,33.40
2018-12-25T02:40:21.314Z,33.50
2018-12-25T02:42:48.957Z,33.40
2018-12-25T02:45:16.643Z,33.40
2018-12-25T02:47:44.283Z,33.40
2018-12-25T02:50:11.894Z,33.40
2018-12-25T02:52:39.637Z,33.50
2018-12-25T02:55:07.371Z,33.40
2018-12-25T02:57:35.038Z,33.40
2018-12-25T03:00:02.933Z,33.40
2018-12-25T03:02:30.564Z,33.50
2018-12-25T03:04:58.231Z,33.40
2018-12-25T03:07:25.883Z,33.20
2018-12-25T03:09:53.525Z,33.40
2018-12-25T03:12:21.150Z,33.50
2018-12-25T03:14:48.855Z,33.40
2018-12-25T03:17:16.487Z,33.40
2018-12-25T03:19:44.328Z,33.40
2018-12-25T03:22:11.931Z,33.40
2018-12-25T03:24:39.528Z,33.40
2018-12-25T03:27:07.256Z,33.50
2018-12-25T03:29:34.917Z,33.40
2018-12-25T03:32:02.946Z,33.40
2018-12-25T03:34:30.644Z,33.50
2018-12-25T03:36:58.266Z,33.40
2018-12-25T03:39:25.942Z,33.40
2018-12-25T03:41:53.579Z,33.40
2018-12-25T03:44:21.251Z,33.40
2018-12-25T03:46:48.898Z,33.50
2018-12-25T03:49:16.480Z,33.40
2018-12-25T03:51:44.078Z,33.40
2018-12-25T03:54:11.727Z,33.20
2018-12-25T03:56:39.388Z,33.40
2018-12-25T03:59:06.987Z,33.40
2018-12-25T04:01:34.639Z,33.40
2018-12-25T04:04:02.313Z,33.40
2018-12-25T04:06:30.025Z,33.50
2018-12-25T04:08:57.649Z,33.50
2018-12-25T04:11:25.394Z,33.50
2018-12-25T04:13:52.979Z,33.40
2018-12-25T04:16:20.571Z,33.40
2018-12-25T04:18:48.225Z,33.40
2018-12-25T04:21:15.831Z,33.30
2018-12-25T04:23:43.484Z,33.30
2018-12-25T04:26:11.143Z,33.40
2018-12-25T04:28:38.771Z,32.90
2018-12-25T04:31:06.385Z,33.30
2018-12-25T04:33:34.023Z,33.20
2018-12-25T04:36:01.681Z,33.00
2018-12-25T04:38:29.374Z,33.40
2018-12-25T04:40:57.041Z,33.20
2018-12-25T04:43:24.698Z,33.00
2018-12-25T04:45:52.320Z,33.00
2018-12-25T04:48:22.661Z,33.00
2018-12-25T04:50:50.382Z,33.30
2018-12-25T04:53:18.268Z,33.30
2018-12-25T04:55:45.937Z,33.30
2018-12-25T04:58:13.558Z,33.30
2018-12-25T05:00:41.209Z,33.30
2018-12-25T05:03:08.816Z,33.30
2018-12-25T05:05:36.436Z,33.30
2018-12-25T05:08:04.115Z,33.30
2018-12-25T05:10:31.701Z,33.00
2018-12-25T05:12:59.308Z,33.30
2018-12-25T05:15:27.023Z,33.10
2018-12-25T05:17:54.652Z,33.30
2018-12-25T05:20:22.264Z,33.30
2018-12-25T05:22:49.914Z,33.40
2018-12-25T05:25:17.514Z,33.30
2018-12-25T05:27:45.106Z,33.10
2018-12-25T05:30:12.773Z,33.40
2018-12-25T05:32:40.461Z,33.10
2018-12-25T05:35:08.137Z,33.40
2018-12-25T05:37:35.790Z,33.20
2018-12-25T05:40:03.462Z,33.30
2018-12-25T05:42:31.119Z,33.30
2018-12-25T05:44:58.759Z,33.30
2018-12-25T05:47:26.343Z,33.20
2018-12-25T05:49:54.004Z,33.10
2018-12-25T05:52:21.640Z,34.00
2018-12-25T05:54:49.291Z,33.30
2018-12-25T05:57:17.095Z,33.30
2018-12-25T05:59:44.701Z,33.30
2018-12-25T06:02:12.363Z,33.30
2018-12-25T06:04:40.067Z,32.70
2018-12-25T06:07:07.685Z,33.00
2018-12-25T06:09:35.381Z,33.30
2018-12-25T06:12:03.097Z,32.90
2018-12-25T06:14:30.693Z,33.10
2018-12-25T06:16:58.303Z,32.90
2018-12-25T06:19:26.021Z,33.00
2018-12-25T06:21:53.629Z,33.20
2018-12-25T06:24:21.301Z,33.30
2018-12-25T06:26:48.986Z,33.30
2018-12-25T06:29:16.663Z,33.40
2018-12-25T06:31:44.261Z,33.10
2018-12-25T06:34:12.001Z,33.40
2018-12-25T06:36:39.645Z,33.50
2018-12-25T06:39:07.247Z,33.40
2018-12-25T06:41:34.919Z,33.20
2018-12-25T06:44:02.552Z,32.80
2018-12-25T06:46:30.173Z,33.50
2018-12-25T06:48:57.872Z,33.60
2018-12-25T06:51:25.611Z,33.60
2018-12-25T06:53:53.206Z,35.10
2018-12-25T06:56:20.787Z,37.30
2018-12-25T06:58:48.455Z,39.60
2018-12-25T07:01:16.139Z,39.70
2018-12-25T07:03:43.856Z,38.00
2018-12-25T07:06:11.463Z,36.40
2018-12-25T07:08:39.073Z,35.50
2018-12-25T07:11:06.721Z,35.20
2018-12-25T07:13:34.396Z,35.10
2018-12-25T07:16:01.988Z,34.00
2018-12-25T07:18:29.615Z,34.30
2018-12-25T07:20:57.203Z,34.00
2018-12-25T07:23:24.850Z,34.00
2018-12-25T07:25:52.442Z,34.00
2018-12-25T07:28:20.036Z,34.00
2018-12-25T07:30:47.703Z,34.00
2018-12-25T07:33:15.375Z,34.00
2018-12-25T07:35:42.993Z,34.00
2018-12-25T07:38:10.638Z,34.00
2018-12-25T07:40:38.230Z,34.00
2018-12-25T07:43:05.858Z,33.90
2018-12-25T07:45:33.588Z,32.40
2018-12-25T07:48:01.190Z,33.30
2018-12-25T07:50:28.796Z,34.00
2018-12-25T07:52:56.481Z,34.00
2018-12-25T07:55:24.114Z,33.90
2018-12-25T07:57:51.734Z,32.90
2018-12-25T08:00:19.636Z,33.10
2018-12-25T08:02:47.255Z,32.70
2018-12-25T08:05:14.864Z,32.40
2018-12-25T08:07:42.604Z,32.00
2018-12-25T08:10:10.435Z,31.40
2018-12-25T08:12:38.103Z,30.80
2018-12-25T08:15:09.223Z,31.40
2018-12-25T08:17:36.841Z,30.70
2018-12-25T08:20:05.396Z,29.30
2018-12-25T08:22:33.023Z,28.50
2018-12-25T08:25:00.679Z,28.40
2018-12-25T08:27:28.299Z,28.40
2018-12-25T08:29:55.911Z,28.40
2018-12-25T08:32:23.905Z,28.40
2018-12-25T08:34:51.551Z,28.30
2018-12-25T08:37:19.165Z,28.30
2018-12-25T08:39:47.110Z,28.30
2018-12-25T08:42:15.141Z,28.30
2018-12-25T08:44:43.168Z,28.30
2018-12-25T08:47:11.711Z,28.30
2018-12-25T08:49:39.533Z,28.30
2018-12-25T08:52:07.171Z,28.30
2018-12-25T08:54:35.200Z,28.30
2018-12-25T08:57:03.427Z,28.30
2018-12-25T08:59:31.240Z,28.30
2018-12-25T09:01:58.807Z,28.30
2018-12-25T09:04:26.982Z,28.30
2018-12-25T09:06:54.719Z,29.10
2018-12-25T09:09:22.610Z,28.60
2018-12-25T09:11:50.367Z,29.20
2018-12-25T09:14:18.216Z,28.80
2018-12-25T09:16:46.141Z,28.80
2018-12-25T09:19:13.801Z,29.10
2018-12-25T09:21:46.078Z,29.00
2018-12-25T09:24:10.737Z,29.30
2018-12-25T09:26:38.376Z,29.40
2018-12-25T09:29:06.080Z,29.70
2018-12-25T09:31:33.799Z,29.90
2018-12-25T09:34:01.419Z,30.00
2018-12-25T09:36:28.994Z,30.00
2018-12-25T09:38:56.599Z,30.40
2018-12-25T09:41:24.260Z,30.30
2018-12-25T09:43:51.865Z,30.60
2018-12-25T09:46:19.448Z,30.80
2018-12-25T09:48:47.195Z,30.50
2018-12-25T09:51:14.862Z,29.60
2018-12-25T09:53:42.457Z,29.60
2018-12-25T09:56:10.094Z,29.70
2018-12-25T09:58:37.688Z,29.90
2018-12-25T10:01:05.285Z,29.70
2018-12-25T10:03:32.939Z,29.60
2018-12-25T10:06:00.617Z,29.70
2018-12-25T10:08:28.223Z,29.70
2018-12-25T10:10:55.856Z,29.80
2018-12-25T10:13:23.522Z,29.70
2018-12-25T10:15:51.219Z,29.70
2018-12-25T10:18:18.866Z,29.60
2018-12-25T10:20:46.461Z,29.60
2018-12-25T10:23:14.051Z,29.50
2018-12-25T10:25:41.718Z,29.50
2018-12-25T10:28:09.434Z,29.40
2018-12-25T10:30:37.080Z,29.30
2018-12-25T10:33:04.735Z,29.60
2018-12-25T10:35:32.410Z,29.50
2018-12-25T10:38:00.070Z,29.60
2018-12-25T10:40:27.707Z,29.50
2018-12-25T10:42:55.292Z,29.50
2018-12-25T10:45:22.890Z,29.30
2018-12-25T10:47:50.647Z,29.70
2018-12-25T10:50:18.243Z,29.50
2018-12-25T10:52:45.905Z,29.40
2018-12-25T10:55:13.571Z,29.70
2018-12-25T10:57:41.219Z,29.40
2018-12-25T11:00:10.558Z,29.40
2018-12-25T11:02:38.147Z,29.40
2018-12-25T11:05:05.733Z,29.30
2018-12-25T11:07:33.407Z,29.50
2018-12-25T11:10:01.021Z,29.60
2018-12-25T11:12:28.678Z,29.50
2018-12-25T11:14:56.400Z,29.50
2018-12-25T11:17:24.012Z,29.30
2018-12-25T11:19:51.679Z,29.30
2018-12-25T11:22:19.958Z,29.30
2018-12-25T11:24:47.878Z,29.50
2018-12-25T11:27:15.528Z,29.40
2018-12-25T11:29:43.116Z,29.50
2018-12-25T11:32:10.790Z,29.50
2018-12-25T11:34:38.475Z,29.50
2018-12-25T11:37:06.118Z,29.40
2018-12-25T11:39:33.743Z,29.30
2018-12-25T11:42:01.410Z,29.30
2018-12-25T11:44:29.081Z,29.40
2018-12-25T11:46:56.754Z,29.30
2018-12-25T11:49:24.384Z,29.30
2018-12-25T11:51:52.020Z,29.30
2018-12-25T11:54:19.590Z,29.40
2018-12-25T11:56:47.195Z,29.50
2018-12-25T11:59:14.836Z,29.60
2018-12-25T12:01:42.420Z,29.10
2018-12-25T12:04:10.002Z,29.30
2018-12-25T12:06:37.664Z,29.30
2018-12-25T12:09:06.033Z,29.30
2018-12-25T12:11:33.614Z,29.10
2018-12-25T12:14:01.282Z,29.40
2018-12-25T12:16:28.869Z,29.40
2018-12-25T12:18:56.540Z,29.40
2018-12-25T12:21:24.310Z,29.40
2018-12-25T12:23:51.870Z,29.30
2018-12-25T12:26:19.514Z,29.30
2018-12-25T12:28:47.110Z,29.30
2018-12-25T12:31:14.698Z,29.30
2018-12-25T12:33:42.321Z,29.20
2018-12-25T12:36:09.954Z,29.40
2018-12-25T12:38:37.568Z,29.30
2018-12-25T12:41:05.168Z,29.30
2018-12-25T12:43:32.835Z,29.40
2018-12-25T12:46:00.470Z,29.50
2018-12-25T12:48:28.096Z,29.20
2018-12-25T12:50:55.810Z,29.30
2018-12-25T12:53:23.470Z,29.30
2018-12-25T12:55:51.108Z,29.30
2018-12-25T12:58:18.722Z,29.20
2018-12-25T13:00:46.360Z,29.40
2018-12-25T13:03:14.016Z,29.30
2018-12-25T13:05:41.685Z,29.00
2018-12-25T13:08:09.371Z,29.10
2018-12-25T13:10:36.978Z,29.10
2018-12-25T13:13:04.770Z,29.30
2018-12-25T13:15:32.381Z,29.10
2018-12-25T13:18:00.087Z,29.10
2018-12-25T13:20:27.673Z,29.20
2018-12-25T13:22:55.419Z,29.00
2018-12-25T13:25:23.161Z,29.10
2018-12-25T13:27:50.760Z,29.00
2018-12-25T13:30:18.404Z,29.10
2018-12-25T13:32:46.047Z,29.20
2018-12-25T13:35:13.615Z,29.10
2018-12-25T13:37:41.280Z,29.30
2018-12-25T13:40:08.849Z,29.00
2018-12-25T13:42:36.420Z,29.00
2018-12-25T13:45:04.341Z,29.10
2018-12-25T13:47:31.926Z,29.20
2018-12-25T13:49:59.518Z,28.90
2018-12-25T13:52:28.054Z,29.00
2018-12-25T13:54:55.645Z,29.20
2018-12-25T13:57:23.238Z,29.30
2018-12-25T13:59:53.929Z,29.20
2018-12-25T14:02:21.522Z,29.20
2018-12-25T14:04:49.125Z,29.10
2018-12-25T14:07:16.775Z,29.30
2018-12-25T14:09:44.387Z,29.00
2018-12-25T14:12:11.983Z,29.20
2018-12-25T14:14:39.623Z,29.20
2018-12-25T14:17:07.246Z,29.10
2018-12-25T14:19:34.899Z,29.20
2018-12-25T14:22:02.620Z,29.10
2018-12-25T14:24:30.233Z,29.10
2018-12-25T14:26:57.843Z,29.10
2018-12-25T14:29:25.551Z,29.00
2018-12-25T14:31:53.180Z,29.10
2018-12-25T14:34:20.790Z,29.20
2018-12-25T14:36:48.372Z,29.10
2018-12-25T14:39:16.007Z,28.80
2018-12-25T14:41:43.724Z,29.10
2018-12-25T14:44:11.407Z,29.20
2018-12-25T14:46:39.033Z,28.90
2018-12-25T14:49:06.707Z,29.10
2018-12-25T14:51:34.289Z,29.20
2018-12-25T14:54:01.901Z,29.00
2018-12-25T14:56:29.678Z,28.90
2018-12-25T14:58:57.273Z,29.20
2018-12-25T15:01:24.901Z,29.00
2018-12-25T15:03:52.504Z,29.00
2018-12-25T15:06:20.181Z,29.10
2018-12-25T15:08:47.786Z,29.10
2018-12-25T15:11:15.378Z,28.90
2018-12-25T15:13:43.003Z,29.00
2018-12-25T15:16:10.633Z,29.00
2018-12-25T15:18:38.304Z,28.90
2018-12-25T15:21:05.900Z,29.00
2018-12-25T15:23:33.542Z,29.20
2018-12-25T15:26:01.163Z,29.10
2018-12-25T15:28:28.825Z,29.00
2018-12-25T15:30:56.493Z,29.10
2018-12-25T15:33:24.099Z,29.00
2018-12-25T15:35:51.796Z,29.10
2018-12-25T15:38:19.481Z,29.00
2018-12-25T15:40:47.131Z,29.00
2018-12-25T15:43:14.800Z,28.90
2018-12-25T15:45:42.435Z,28.80
2018-12-25T15:48:10.144Z,28.80
2018-12-25T15:50:37.763Z,28.90
2018-12-25T15:53:05.439Z,28.70
2018-12-25T15:55:33.146Z,29.00
2018-12-25T15:58:00.781Z,29.00
2018-12-25T16:00:28.391Z,29.00
2018-12-25T16:02:55.977Z,29.10
2018-12-25T16:05:23.664Z,29.00
2018-12-25T16:07:51.318Z,29.00
2018-12-25T16:10:18.941Z,28.90
2018-12-25T16:12:46.550Z,28.80
2018-12-25T16:15:14.180Z,28.90
2018-12-25T16:17:44.551Z,29.00
2018-12-25T16:20:12.223Z,29.10
2018-12-25T16:22:40.020Z,28.10
2018-12-25T16:25:07.599Z,28.10
2018-12-25T16:27:35.201Z,28.10
2018-12-25T16:30:03.623Z,28.10
2018-12-25T16:32:31.288Z,28.10
2018-12-25T16:34:58.919Z,28.00
2018-12-25T16:37:26.528Z,27.50
2018-12-25T16:39:54.208Z,28.10
2018-12-25T16:42:21.929Z,26.70
2018-12-25T16:44:49.625Z,27.60
2018-12-25T16:47:17.273Z,27.40
2018-12-25T16:49:44.915Z,26.30
2018-12-25T16:52:12.502Z,26.80
2018-12-25T16:54:40.188Z,26.30
2018-12-25T16:57:07.814Z,26.80
2018-12-25T16:59:35.420Z,26.50
2018-12-25T17:02:03.148Z,26.70
2018-12-25T17:04:30.737Z,26.00
2018-12-25T17:06:58.357Z,26.40
2018-12-25T17:09:25.943Z,26.90
2018-12-25T17:11:53.557Z,27.10
2018-12-25T17:14:21.273Z,27.10
2018-12-25T17:16:48.856Z,27.30
2018-12-25T17:19:16.454Z,26.70
2018-12-25T17:21:44.227Z,26.00
2018-12-25T17:24:11.888Z,25.80
2018-12-25T17:26:39.503Z,25.40
2018-12-25T17:29:07.141Z,25.50
2018-12-25T17:31:34.744Z,25.70
2018-12-25T17:34:02.351Z,26.10
2018-12-25T17:36:30.091Z,26.40
2018-12-25T17:38:57.767Z,26.70
2018-12-25T17:41:25.418Z,26.40
2018-12-25T17:43:53.049Z,26.10
2018-12-25T17:46:20.664Z,25.70
2018-12-25T17:48:48.323Z,25.50
2018-12-25T17:51:15.979Z,25.20
2018-12-25T17:53:43.556Z,25.50
2018-12-25T17:56:11.163Z,24.90
2018-12-25T17:58:38.908Z,24.90
2018-12-25T18:01:06.632Z,23.80
2018-12-25T18:03:34.226Z,23.60
2018-12-25T18:06:01.830Z,24.80
2018-12-25T18:08:29.492Z,25.10
2018-12-25T18:10:57.145Z,25.50
2018-12-25T18:13:24.840Z,25.60
2018-12-25T18:15:52.440Z,25.80
2018-12-25T18:18:20.040Z,25.90
2018-12-25T18:20:47.707Z,26.00
2018-12-25T18:23:15.331Z,26.30
2018-12-25T18:25:43.010Z,26.50
2018-12-25T18:28:10.735Z,26.70
2018-12-25T18:30:38.341Z,27.70
2018-12-25T18:33:05.995Z,27.10
2018-12-25T18:35:33.632Z,27.30
2018-12-25T18:38:01.284Z,27.60
2018-12-25T18:40:28.887Z,27.80
2018-12-25T18:42:56.462Z,28.10
2018-12-25T18:45:24.108Z,28.30
2018-12-25T18:47:51.840Z,28.30
2018-12-25T18:50:19.592Z,28.40
2018-12-25T18:52:47.252Z,28.30
2018-12-25T18:55:14.857Z,28.30
2018-12-25T18:57:42.449Z,28.40
2018-12-25T19:00:10.094Z,28.40
2018-12-25T19:02:37.714Z,28.40
2018-12-25T19:05:05.379Z,28.40
2018-12-25T19:07:32.995Z,28.40
2018-12-25T19:10:00.635Z,28.30
2018-12-25T19:12:28.294Z,28.30
2018-12-25T19:14:58.633Z,28.30
2018-12-25T19:17:26.246Z,28.30
2018-12-25T19:19:54.041Z,28.30
2018-12-25T19:22:21.698Z,28.30
2018-12-25T19:24:49.570Z,28.30
2018-12-25T19:27:17.183Z,28.30
2018-12-25T19:29:45.349Z,28.30
2018-12-25T19:32:13.348Z,28.30
2018-12-25T19:34:41.011Z,28.30
2018-12-25T19:37:08.687Z,28.30
2018-12-25T19:39:36.414Z,28.50
2018-12-25T19:42:04.096Z,28.30
2018-12-25T19:44:31.726Z,28.30
2018-12-25T19:46:59.463Z,28.30
2018-12-25T19:49:27.098Z,28.30
2018-12-25T19:51:54.727Z,28.30
2018-12-25T19:54:22.444Z,28.30
2018-12-25T19:56:50.075Z,28.30
2018-12-25T19:59:17.716Z,28.30
2018-12-25T20:01:45.441Z,28.50
2018-12-25T20:04:14.769Z,28.80
2018-12-25T20:06:55.884Z,28.70
2018-12-25T20:09:43.014Z,28.70
2018-12-25T20:12:28.715Z,28.90
2018-12-25T20:15:00.694Z,29.00
2018-12-25T20:17:41.850Z,29.00
2018-12-25T20:20:14.047Z,29.20
2018-12-25T20:22:46.186Z,29.10
2018-12-25T20:25:21.541Z,29.20
2018-12-25T20:27:53.534Z,29.40
2018-12-25T20:30:37.758Z,29.40
2018-12-25T20:33:10.043Z,29.50
2018-12-25T20:35:42.304Z,29.50
2018-12-25T20:38:23.730Z,29.70
2018-12-25T20:41:09.431Z,29.70
2018-12-25T20:43:38.644Z,29.70
2018-12-25T20:46:10.908Z,29.60
2018-12-25T20:48:40.182Z,29.80
2018-12-25T20:51:09.408Z,29.80
2018-12-25T20:53:47.377Z,30.00
2018-12-25T20:56:32.872Z,29.90
2018-12-25T20:59:05.137Z,30.00
2018-12-25T21:01:50.744Z,30.10
2018-12-25T21:04:36.433Z,30.00
2018-12-25T21:07:20.741Z,30.20
2018-12-25T21:09:53.109Z,30.20
2018-12-25T21:12:31.394Z,30.10
2018-12-25T21:15:16.341Z,30.30
2018-12-25T21:18:02.028Z,30.30
2018-12-25T21:20:31.236Z,30.40
2018-12-25T21:23:17.985Z,30.50
2018-12-25T21:26:03.659Z,30.50
2018-12-25T21:28:32.183Z,30.50
2018-12-25T21:30:59.803Z,30.40
2018-12-25T21:33:27.472Z,30.50
2018-12-25T21:35:55.175Z,30.50
2018-12-25T21:38:22.771Z,30.70
2018-12-25T21:40:50.425Z,30.80
2018-12-25T21:43:18.131Z,30.90
2018-12-25T21:45:45.775Z,30.80
2018-12-25T21:48:13.552Z,30.90
2018-12-25T21:50:41.181Z,31.00
2018-12-25T21:53:08.783Z,30.80
2018-12-25T21:55:36.438Z,30.80
2018-12-25T21:58:06.953Z,30.80
2018-12-25T22:00:35.466Z,30.80
2018-12-25T22:03:03.577Z,30.90
2018-12-25T22:05:31.783Z,30.80
2018-12-25T22:07:59.711Z,30.70
2018-12-25T22:10:27.341Z,31.00
2018-12-25T22:12:55.267Z,31.00
2018-12-25T22:15:22.967Z,31.10
2018-12-25T22:17:51.019Z,30.90
2018-12-25T22:20:20.514Z,30.80
2018-12-25T22:22:48.249Z,30.80
2018-12-25T22:25:15.838Z,30.90
2018-12-25T22:27:43.515Z,31.00
2018-12-25T22:30:11.536Z,30.90
2018-12-25T22:32:39.181Z,30.90
2018-12-25T22:35:06.846Z,30.90
2018-12-25T22:37:34.511Z,30.80
2018-12-25T22:40:02.129Z,31.10
2018-12-25T22:42:29.769Z,31.10
2018-12-25T22:44:57.398Z,31.00
2018-12-25T22:47:25.008Z,30.90
2018-12-25T22:49:52.694Z,31.00
2018-12-25T22:52:20.811Z,30.90
2018-12-25T22:54:48.407Z,31.10
2018-12-25T22:57:17.291Z,31.10
2018-12-25T22:59:45.151Z,31.10
2018-12-25T23:02:12.863Z,31.10
2018-12-25T23:04:40.502Z,31.00
2018-12-25T23:07:08.135Z,31.00
2018-12-25T23:09:35.755Z,31.20
2018-12-25T23:12:03.624Z,31.00
2018-12-25T23:14:31.489Z,31.10
2018-12-25T23:16:59.124Z,31.20
2018-12-25T23:19:26.834Z,31.30
2018-12-25T23:21:54.426Z,31.40
2018-12-25T23:24:22.207Z,31.50
2018-12-25T23:26:50.087Z,31.70
2018-12-25T23:29:17.731Z,31.60
2018-12-25T23:31:45.552Z,31.50
2018-12-25T23:34:13.244Z,31.50
2018-12-25T23:36:40.944Z,31.70
2018-12-25T23:39:08.887Z,31.50
2018-12-25T23:41:36.492Z,31.60
2018-12-25T23:44:04.212Z,31.70
2018-12-25T23:46:31.894Z,32.30
2018-12-25T23:48:59.653Z,31.50
2018-12-25T23:51:27.369Z,31.60
2018-12-25T23:53:54.974Z,31.40
2018-12-25T23:56:22.631Z,31.40
2018-12-25T23:58:50.350Z,31.50
